Terminal Aerodrome Forecast
Issued by NWS

Home | Current Version | Previous Version | Graphics & Text | Print | Product List | Glossary On
Versions: 1 2 3 4 5 6 7 8 9 10 11 12 13 14 15 16
000
FTUS43 KICT 262300
TAFSLN
TAF
KSLN 262331Z 2700/2724 VRB05KT P6SM SCT130
     FM270100 36009KT P6SM VCTS BKN120CB
     FM270600 03013KT P6SM SCT110
     FM271800 02014KT P6SM SCT050 BKN120=

USA.gov is the U.S. government's official web portal to all federal, state and local government web resources and services.